createdAt,value
2018-07-31T00:01:43.361Z,8.10
2018-07-31T00:04:16.182Z,8.43
2018-07-31T00:06:50.101Z,8.27
2018-07-31T00:09:21.218Z,8.20
2018-07-31T00:12:03.126Z,8.63
2018-07-31T00:14:46.025Z,7.83
2018-07-31T00:17:29.020Z,8.43
2018-07-31T00:20:09.525Z,8.43
2018-07-31T00:22:42.104Z,8.33
2018-07-31T00:25:21.266Z,8.37
2018-07-31T00:27:55.776Z,8.50
2018-07-31T00:30:35.639Z,8.10
2018-07-31T00:33:15.832Z,8.00
2018-07-31T00:35:52.202Z,8.50
2018-07-31T00:38:22.022Z,8.10
2018-07-31T00:40:53.834Z,8.47
2018-07-31T00:43:32.362Z,8.20
2018-07-31T00:46:12.502Z,8.60
2018-07-31T00:48:51.325Z,8.50
2018-07-31T00:51:30.409Z,8.43
2018-07-31T00:54:09.416Z,8.40
2018-07-31T00:56:48.514Z,8.63
2018-07-31T00:59:27.422Z,8.17
2018-07-31T01:02:01.303Z,8.53
2018-07-31T01:04:35.323Z,8.47
2018-07-31T01:07:07.402Z,8.27
2018-07-31T01:09:48.223Z,8.40
2018-07-31T01:12:20.939Z,8.20
2018-07-31T01:14:53.659Z,8.33
2018-07-31T01:17:25.929Z,8.23
2018-07-31T01:20:07.200Z,8.47
2018-07-31T01:22:46.935Z,8.53
2018-07-31T01:25:25.872Z,8.23
2018-07-31T01:28:04.823Z,8.40
2018-07-31T01:30:45.470Z,9.00
2018-07-31T01:33:24.858Z,8.20
2018-07-31T01:36:04.410Z,8.43
2018-07-31T01:38:40.789Z,9.23
2018-07-31T01:41:12.259Z,9.20
2018-07-31T01:43:53.448Z,8.53
2018-07-31T01:46:34.295Z,8.60
2018-07-31T01:49:13.659Z,9.07
2018-07-31T01:51:54.655Z,8.83
2018-07-31T01:54:34.879Z,8.13
2018-07-31T01:57:15.549Z,8.60
2018-07-31T02:00:02.430Z,8.20
2018-07-31T02:02:41.333Z,8.17
2018-07-31T02:05:18.474Z,8.87
2018-07-31T02:08:01.792Z,8.80
2018-07-31T02:10:52.853Z,8.67
2018-07-31T02:17:17.588Z,8.37
2018-07-31T02:19:53.187Z,8.47
2018-07-31T02:22:40.886Z,8.40
2018-07-31T02:25:24.579Z,9.00
2018-07-31T02:28:12.058Z,8.50
2018-07-31T02:30:51.453Z,9.10
2018-07-31T02:33:26.403Z,8.90
2018-07-31T02:35:58.284Z,8.90
2018-07-31T02:38:31.603Z,9.00
2018-07-31T02:41:02.253Z,9.07
2018-07-31T02:43:47.773Z,9.33
2018-07-31T02:46:29.539Z,9.47
2018-07-31T02:49:08.735Z,9.10
2018-07-31T02:51:47.077Z,9.27
2018-07-31T02:54:19.286Z,8.90
2018-07-31T02:56:55.619Z,9.70
2018-07-31T02:59:28.460Z,9.03
2018-07-31T03:02:01.819Z,9.30
2018-07-31T03:04:31.859Z,8.73
2018-07-31T03:07:05.440Z,9.47
2018-07-31T03:09:40.769Z,9.20
2018-07-31T03:12:12.332Z,9.50
2018-07-31T03:14:47.091Z,8.50
2018-07-31T03:17:27.545Z,9.43
2018-07-31T03:20:02.441Z,8.97
2018-07-31T03:22:34.181Z,9.53
2018-07-31T03:25:08.621Z,9.17
2018-07-31T03:27:40.604Z,9.70
2018-07-31T03:30:21.544Z,10.33
2018-07-31T03:33:00.626Z,10.43
2018-07-31T03:36:04.475Z,10.00
2018-07-31T03:38:43.906Z,10.07
2018-07-31T03:41:15.580Z,10.57
2018-07-31T03:44:00.830Z,9.67
2018-07-31T03:46:40.927Z,9.80
2018-07-31T03:49:19.019Z,9.60
2018-07-31T03:51:50.502Z,9.50
2018-07-31T03:54:29.540Z,9.53
2018-07-31T03:57:04.684Z,9.43
2018-07-31T03:59:43.445Z,9.30
2018-07-31T04:02:15.638Z,8.83
2018-07-31T04:04:47.304Z,9.60
2018-07-31T04:07:25.076Z,9.30
2018-07-31T04:10:04.334Z,8.83
2018-07-31T04:12:44.245Z,9.77
2018-07-31T04:15:23.293Z,9.20
2018-07-31T04:18:02.290Z,9.17
2018-07-31T04:20:33.749Z,8.97
2018-07-31T04:23:05.639Z,9.00
2018-07-31T04:25:39.889Z,9.03
2018-07-31T04:28:19.029Z,9.33
2018-07-31T04:30:58.025Z,9.57
2018-07-31T04:33:51.822Z,9.00
2018-07-31T04:36:32.450Z,9.53
2018-07-31T04:39:13.241Z,9.83
2018-07-31T04:41:52.438Z,8.70
2018-07-31T04:44:31.654Z,9.50
2018-07-31T04:47:11.003Z,9.40
2018-07-31T04:49:51.180Z,9.77
2018-07-31T04:52:32.657Z,9.23
2018-07-31T04:55:11.922Z,9.60
2018-07-31T04:57:50.744Z,9.20
2018-07-31T05:00:29.600Z,9.10
2018-07-31T05:03:13.555Z,9.50
2018-07-31T05:05:45.664Z,9.00
2018-07-31T05:08:24.523Z,9.20
2018-07-31T05:11:04.831Z,9.20
2018-07-31T05:13:44.196Z,9.00
2018-07-31T05:16:25.274Z,9.00
2018-07-31T05:18:57.741Z,9.37
2018-07-31T05:21:38.080Z,9.93
2018-07-31T05:24:17.277Z,9.07
2018-07-31T05:27:00.030Z,9.33
2018-07-31T05:29:39.124Z,8.83
2018-07-31T05:32:18.271Z,9.13
2018-07-31T05:34:57.584Z,9.37
2018-07-31T05:37:51.311Z,9.37
2018-07-31T05:46:02.666Z,9.43
2018-07-31T05:48:34.454Z,10.07
2018-07-31T05:51:10.633Z,9.10
2018-07-31T05:53:52.714Z,8.80
2018-07-31T05:56:43.304Z,9.03
2018-07-31T05:59:21.828Z,9.23
2018-07-31T06:02:00.937Z,9.40
2018-07-31T06:04:52.616Z,9.03
2018-07-31T06:07:24.426Z,9.13
2018-07-31T06:10:10.985Z,9.73
2018-07-31T06:12:50.237Z,8.90
2018-07-31T06:15:21.694Z,9.13
2018-07-31T06:17:55.286Z,9.40
2018-07-31T06:20:34.813Z,9.20
2018-07-31T06:23:14.159Z,8.90
2018-07-31T06:26:21.760Z,8.67
2018-07-31T06:29:09.357Z,9.03
2018-07-31T06:31:48.635Z,8.33
2018-07-31T06:34:21.145Z,9.30
2018-07-31T06:37:01.725Z,9.37
2018-07-31T06:39:33.744Z,8.33
2018-07-31T06:42:15.279Z,9.20
2018-07-31T06:44:50.075Z,8.90
2018-07-31T06:47:21.325Z,8.80
2018-07-31T06:49:53.346Z,9.03
2018-07-31T06:59:28.295Z,9.43
2018-07-31T07:02:08.835Z,9.07
2018-07-31T07:04:48.975Z,9.20
2018-07-31T07:07:19.615Z,9.73
2018-07-31T07:09:53.846Z,9.00
2018-07-31T07:12:25.215Z,9.33
2018-07-31T07:14:58.705Z,9.20
2018-07-31T07:17:32.067Z,8.93
2018-07-31T07:20:04.711Z,9.60
2018-07-31T07:22:44.616Z,8.60
2018-07-31T07:25:18.235Z,9.60
2018-07-31T07:28:02.107Z,9.03
2018-07-31T07:30:37.610Z,8.97
2018-07-31T07:50:07.698Z,9.43
2018-07-31T07:52:48.580Z,9.20
2018-07-31T07:55:28.772Z,9.23
2018-07-31T07:58:11.182Z,9.60
2018-07-31T08:00:53.074Z,9.03
2018-07-31T08:03:36.235Z,9.63
2018-07-31T08:06:23.325Z,9.70
2018-07-31T08:09:16.221Z,9.43
2018-07-31T08:12:06.093Z,9.80
2018-07-31T08:14:52.800Z,8.97
2018-07-31T08:17:37.643Z,9.47
2018-07-31T08:20:20.640Z,9.90
2018-07-31T08:26:36.672Z,9.70
2018-07-31T08:29:30.797Z,9.30
2018-07-31T08:32:09.097Z,9.73
2018-07-31T08:35:15.428Z,9.20
2018-07-31T08:37:57.047Z,9.27
2018-07-31T08:40:39.122Z,9.70
2018-07-31T08:43:42.500Z,9.30
2018-07-31T08:46:28.804Z,9.37
2018-07-31T08:49:13.910Z,9.73
2018-07-31T08:51:57.010Z,9.23
2018-07-31T08:58:14.971Z,9.53
2018-07-31T09:00:57.876Z,9.83
2018-07-31T09:03:41.002Z,10.40
2018-07-31T09:06:23.123Z,9.70
2018-07-31T09:09:06.589Z,10.10
2018-07-31T09:11:49.387Z,9.87
2018-07-31T09:14:30.775Z,9.00
2018-07-31T09:17:15.181Z,9.93
2018-07-31T09:19:59.770Z,9.83
2018-07-31T09:22:45.224Z,9.33
2018-07-31T09:25:38.550Z,9.67
2018-07-31T09:28:25.350Z,10.00
2018-07-31T09:31:10.459Z,10.03
2018-07-31T09:34:17.485Z,9.70
2018-07-31T09:37:00.699Z,9.80
2018-07-31T09:39:42.892Z,9.40
2018-07-31T09:42:27.638Z,10.07
2018-07-31T09:45:31.027Z,9.47
2018-07-31T09:48:12.886Z,10.53
2018-07-31T09:51:06.462Z,10.03
2018-07-31T09:54:06.778Z,9.63
2018-07-31T11:07:39.868Z,8.77
2018-07-31T11:13:43.063Z,7.57
2018-07-31T11:16:29.064Z,7.97
2018-07-31T11:19:26.214Z,7.30
2018-07-31T11:22:25.317Z,8.33
2018-07-31T11:25:22.272Z,8.10
2018-07-31T11:28:07.988Z,8.13
2018-07-31T11:30:53.185Z,8.20
2018-07-31T11:33:38.320Z,7.57
2018-07-31T11:36:29.340Z,7.80
2018-07-31T11:39:17.441Z,7.80
2018-07-31T11:42:22.428Z,7.37
2018-07-31T11:48:36.977Z,8.10
2018-07-31T11:51:31.590Z,7.40
2018-07-31T11:57:23.754Z,7.87
2018-07-31T12:00:08.503Z,8.40
2018-07-31T12:02:57.270Z,7.57
2018-07-31T12:05:45.497Z,6.80
2018-07-31T12:08:33.659Z,6.87
2018-07-31T12:11:30.181Z,7.50
2018-07-31T12:14:27.212Z,6.60
2018-07-31T12:17:19.660Z,6.70
2018-07-31T12:20:10.573Z,7.20
2018-07-31T12:23:03.880Z,7.13
2018-07-31T12:25:48.916Z,6.73
2018-07-31T12:28:39.213Z,6.57
2018-07-31T12:34:27.161Z,7.33
2018-07-31T12:37:18.904Z,7.10
2018-07-31T12:40:01.701Z,7.07
2018-07-31T12:42:49.126Z,7.53
2018-07-31T12:45:35.844Z,6.47
2018-07-31T12:48:20.227Z,7.07
2018-07-31T12:51:06.394Z,6.67
2018-07-31T12:54:07.655Z,6.87
2018-07-31T12:56:55.681Z,7.03
2018-07-31T12:59:37.775Z,6.60
2018-07-31T13:02:23.543Z,7.03
2018-07-31T13:05:14.597Z,6.50
2018-07-31T13:07:59.149Z,6.87
2018-07-31T13:10:45.739Z,7.00
2018-07-31T13:13:40.996Z,6.93
2018-07-31T13:16:32.310Z,6.47
2018-07-31T13:19:19.488Z,6.43
2018-07-31T13:22:06.492Z,6.40
2018-07-31T13:24:58.948Z,6.60
2018-07-31T13:27:49.288Z,7.10
2018-07-31T13:30:35.258Z,6.63
2018-07-31T13:33:25.234Z,6.50
2018-07-31T13:42:51.396Z,5.93
2018-07-31T13:45:38.108Z,5.90
2018-07-31T13:48:34.395Z,6.13
2018-07-31T13:51:29.452Z,6.30
2018-07-31T13:54:11.143Z,6.20
2018-07-31T13:56:54.913Z,6.20
2018-07-31T13:59:49.406Z,6.10
2018-07-31T14:02:32.582Z,6.20
2018-07-31T14:05:22.614Z,6.37
2018-07-31T14:08:06.610Z,6.47
2018-07-31T14:10:51.586Z,6.23
2018-07-31T14:13:44.105Z,5.97
2018-07-31T14:16:35.372Z,6.30
2018-07-31T14:19:23.942Z,6.40
2018-07-31T14:22:12.456Z,5.70
2018-07-31T14:24:56.612Z,6.43
2018-07-31T14:27:51.774Z,6.00
2018-07-31T14:30:54.886Z,6.70
2018-07-31T14:33:43.465Z,6.00
2018-07-31T14:36:28.782Z,5.57
2018-07-31T14:45:12.349Z,5.90
2018-07-31T14:47:56.657Z,5.83
2018-07-31T14:53:53.446Z,5.90
2018-07-31T14:56:25.476Z,5.93
2018-07-31T14:59:04.445Z,5.83
2018-07-31T15:01:42.235Z,6.13
2018-07-31T15:04:40.514Z,6.30
2018-07-31T15:10:05.960Z,5.90
2018-07-31T15:12:38.164Z,5.90
2018-07-31T15:15:09.910Z,6.07
2018-07-31T15:17:49.486Z,6.17
2018-07-31T15:20:32.566Z,6.60
2018-07-31T15:29:30.360Z,5.80
2018-07-31T15:38:02.203Z,6.07
2018-07-31T15:40:50.472Z,6.30
2018-07-31T15:43:48.492Z,5.97
2018-07-31T15:46:32.943Z,6.10
2018-07-31T15:49:24.746Z,6.07
2018-07-31T15:52:18.497Z,5.93
2018-07-31T15:55:43.262Z,6.27
2018-07-31T16:01:21.200Z,6.23
2018-07-31T16:04:26.954Z,6.37
2018-07-31T16:07:29.068Z,6.27
2018-07-31T16:13:59.898Z,6.10
2018-07-31T16:16:44.913Z,6.07
2018-07-31T16:19:28.559Z,6.37
2018-07-31T16:25:42.779Z,6.20
2018-07-31T16:28:34.556Z,5.83
2018-07-31T16:37:23.719Z,6.23
2018-07-31T16:40:09.663Z,6.10
2018-07-31T16:43:10.806Z,6.40
2018-07-31T16:46:26.808Z,6.20
2018-07-31T16:49:18.741Z,6.40
2018-07-31T16:55:43.446Z,6.57
2018-07-31T17:01:31.442Z,6.57
2018-07-31T17:04:12.419Z,6.50
2018-07-31T17:07:06.773Z,6.60
2018-07-31T17:09:53.237Z,7.00
2018-07-31T17:12:35.437Z,6.13
2018-07-31T17:15:30.234Z,6.30
2018-07-31T17:18:12.801Z,6.60
2018-07-31T17:21:03.745Z,6.70
2018-07-31T17:23:51.497Z,6.50
2018-07-31T17:35:49.890Z,7.20
2018-07-31T17:38:34.865Z,6.83
2018-07-31T17:41:21.061Z,7.20
2018-07-31T17:44:06.005Z,7.00
2018-07-31T17:46:58.669Z,7.20
2018-07-31T17:49:42.686Z,6.47
2018-07-31T17:55:29.672Z,7.43
2018-07-31T17:58:22.881Z,7.40
2018-07-31T18:01:09.146Z,7.00
2018-07-31T18:10:07.943Z,7.00
2018-07-31T18:12:56.202Z,7.53
2018-07-31T18:15:51.105Z,7.43
2018-07-31T18:21:36.906Z,7.50
2018-07-31T18:24:26.276Z,7.47
2018-07-31T18:30:03.481Z,9.07
2018-07-31T18:32:50.296Z,8.20
2018-07-31T18:38:37.788Z,7.20
2018-07-31T18:41:27.924Z,7.77
2018-07-31T18:44:16.824Z,7.50
2018-07-31T18:47:02.573Z,7.80
2018-07-31T18:49:54.304Z,7.73
2018-07-31T18:52:47.260Z,7.50
2018-07-31T18:56:00.049Z,7.53
2018-07-31T19:02:22.447Z,7.33
2018-07-31T19:05:35.167Z,7.50
2018-07-31T19:12:38.599Z,7.90
2018-07-31T19:15:14.747Z,7.53
2018-07-31T19:17:45.918Z,7.60
2018-07-31T19:20:16.768Z,7.80
2018-07-31T19:22:47.942Z,7.77
2018-07-31T19:25:20.070Z,8.13
2018-07-31T19:27:50.324Z,8.83
2018-07-31T19:30:21.109Z,8.30
2018-07-31T19:32:52.757Z,8.33
2018-07-31T19:35:25.278Z,8.80
2018-07-31T19:37:56.359Z,8.63
2018-07-31T19:40:28.105Z,9.17
2018-07-31T19:42:59.516Z,9.10
2018-07-31T19:45:30.567Z,9.30
2018-07-31T19:48:01.287Z,8.60
2018-07-31T19:50:32.727Z,9.57
2018-07-31T19:53:02.958Z,8.97
2018-07-31T19:55:33.067Z,8.97
2018-07-31T19:58:05.896Z,9.90
2018-07-31T20:00:36.698Z,9.70
2018-07-31T20:03:10.060Z,9.57
2018-07-31T20:33:31.574Z,9.33
2018-07-31T20:36:08.602Z,9.17
2018-07-31T20:38:45.968Z,9.40
2018-07-31T20:41:26.874Z,9.13
2018-07-31T20:43:59.494Z,8.40
2018-07-31T20:46:30.993Z,8.17
2018-07-31T20:49:03.673Z,9.30
2018-07-31T20:51:44.315Z,8.80
2018-07-31T20:54:14.483Z,8.40
2018-07-31T20:56:47.173Z,8.47
2018-07-31T20:59:19.512Z,9.00
2018-07-31T21:01:58.812Z,9.07
2018-07-31T21:04:30.312Z,9.00
2018-07-31T21:07:02.290Z,8.67
2018-07-31T21:09:33.986Z,8.80
2018-07-31T21:12:04.359Z,9.87
2018-07-31T21:14:36.269Z,9.57
2018-07-31T21:17:08.696Z,8.73
2018-07-31T21:19:39.716Z,8.80
2018-07-31T21:22:10.256Z,8.30
2018-07-31T21:24:42.112Z,8.50
2018-07-31T21:27:12.242Z,8.90
2018-07-31T21:29:44.101Z,8.67
2018-07-31T21:32:23.930Z,8.80
2018-07-31T21:34:55.300Z,10.77
2018-07-31T21:37:27.100Z,9.17
2018-07-31T21:39:57.309Z,8.70
2018-07-31T21:42:28.820Z,8.83
2018-07-31T21:45:04.869Z,8.80
2018-07-31T21:47:36.435Z,8.57
2018-07-31T21:50:08.279Z,8.60
2018-07-31T21:52:39.841Z,8.20
2018-07-31T21:55:11.998Z,8.20
2018-07-31T21:57:50.843Z,8.30
2018-07-31T22:00:34.080Z,8.63
2018-07-31T22:03:13.311Z,8.30
2018-07-31T22:05:45.381Z,9.10
2018-07-31T22:08:24.787Z,8.37
2018-07-31T22:11:04.885Z,8.40
2018-07-31T22:13:35.728Z,8.90
2018-07-31T22:16:15.072Z,9.30
2018-07-31T22:18:47.282Z,8.50
2018-07-31T22:21:27.063Z,8.67
2018-07-31T22:23:58.623Z,8.77
2018-07-31T22:26:38.432Z,9.37
2018-07-31T22:31:52.465Z,8.20
2018-07-31T22:34:23.996Z,8.63
2018-07-31T22:37:00.204Z,8.20
2018-07-31T22:39:31.594Z,8.93
2018-07-31T22:42:01.304Z,9.33
2018-07-31T22:44:37.955Z,8.87
2018-07-31T22:47:16.869Z,8.47
2018-07-31T22:49:46.915Z,8.57
2018-07-31T22:52:22.732Z,9.13
2018-07-31T22:55:01.734Z,9.17
2018-07-31T22:57:40.982Z,8.07
2018-07-31T23:00:20.238Z,8.70
2018-07-31T23:03:00.101Z,8.50
2018-07-31T23:05:31.830Z,9.10
2018-07-31T23:08:11.408Z,8.50
2018-07-31T23:10:50.506Z,8.83
2018-07-31T23:13:30.379Z,8.90
2018-07-31T23:16:09.785Z,9.00
2018-07-31T23:18:49.611Z,9.30
2018-07-31T23:21:21.669Z,9.00
2018-07-31T23:24:00.452Z,8.60
2018-07-31T23:26:31.979Z,8.73
2018-07-31T23:29:12.498Z,8.87
2018-07-31T23:31:52.510Z,9.17
2018-07-31T23:34:23.673Z,9.07
2018-07-31T23:36:53.631Z,9.27
2018-07-31T23:39:25.620Z,9.10
2018-07-31T23:42:00.818Z,8.97
2018-07-31T23:44:37.558Z,9.07
2018-07-31T23:47:09.318Z,8.97
2018-07-31T23:49:48.631Z,8.93
2018-07-31T23:52:28.840Z,9.17
2018-07-31T23:55:08.125Z,9.17
2018-07-31T23:57:47.616Z,8.90
